Time;durP1;ratioP1;P1;durP2;ratioP2;P2;SDS_P1;SDS_P2;PMS_P1;PMS_P2;Temp;Humidity;BMP_temperature;BMP_pressure;BME280_temperature;BME280_humidity;BME280_pressure;Samples;Min_cycle;Max_cycle;Signal;HPM_P1;HPM_P2
2021/05/02 00:00:32;;;;;;;5.57;2.00;;;;;;;13.25;51.18;100615.44;4961976;28;20463;-68
2021/05/02 00:03:00;;;;;;;8.07;1.73;;;;;;;13.26;51.26;100617.09;4959200;28;20051;-65
2021/05/02 00:05:29;;;;;;;7.13;1.70;;;;;;;13.23;51.34;100614.84;4953100;28;20043;-70
2021/05/02 00:07:56;;;;;;;4.10;1.77;;;;;;;13.24;51.28;100622.19;4957845;28;20079;-71
2021/05/02 00:10:24;;;;;;;5.13;1.60;;;;;;;13.24;51.19;100620.22;4960449;28;20060;-68
2021/05/02 00:12:51;;;;;;;8.77;2.50;;;;;;;13.13;51.40;100600.94;4958487;28;20047;-68
2021/05/02 00:15:20;;;;;;;7.03;2.20;;;;;;;13.20;51.36;100612.69;4955721;28;20178;-63
2021/05/02 00:17:49;;;;;;;4.77;1.70;;;;;;;13.20;51.46;100618.28;4957359;28;20043;-63
2021/05/02 00:20:22;;;;;;;4.60;1.73;;;;;;;13.18;51.29;100614.94;4957630;28;20293;-64
2021/05/02 00:22:51;;;;;;;4.63;2.07;;;;;;;13.18;51.43;100610.16;4954131;28;20051;-67
2021/05/02 00:25:30;;;;;;;6.03;2.10;;;;;;;13.13;51.37;100607.41;4957772;28;20062;-67
2021/05/02 00:27:58;;;;;;;9.80;2.40;;;;;;;13.14;51.60;100609.09;4956904;28;20047;-67
2021/05/02 00:30:26;;;;;;;8.33;2.40;;;;;;;13.12;51.66;100611.34;4957515;28;20058;-68
2021/05/02 00:32:54;;;;;;;4.00;2.23;;;;;;;13.09;51.76;100603.50;4958795;28;20089;-67
2021/05/02 00:35:24;;;;;;;3.93;2.27;;;;;;;12.91;51.80;100588.28;4953581;28;20039;-68
2021/05/02 00:37:52;;;;;;;5.10;2.05;;;;;;;13.00;51.87;100600.53;4962258;28;20038;-68
2021/05/02 00:40:39;;;;;;;4.77;2.17;;;;;;;12.95;52.12;100600.56;4959655;28;20055;-71
2021/05/02 00:43:08;;;;;;;8.77;2.37;;;;;;;12.92;52.10;100595.56;4953870;28;20051;-72
2021/05/02 00:45:41;;;;;;;4.40;2.10;;;;;;;12.77;52.38;100599.34;4962405;28;20399;-73
2021/05/02 00:48:26;;;;;;;3.53;1.23;;;;;;;12.59;52.78;100596.44;4958621;28;20043;-75
2021/05/02 00:51:01;;;;;;;3.37;1.80;;;;;;;12.53;52.91;100595.63;4959436;28;20077;-75
2021/05/02 00:53:38;;;;;;;2.80;1.80;;;;;;;12.53;52.75;100609.63;4953572;28;20058;-76
2021/05/02 00:56:16;;;;;;;4.43;2.00;;;;;;;12.44;53.13;100594.56;4960427;28;20046;-74
2021/05/02 00:59:06;;;;;;;5.07;2.37;;;;;;;12.45;53.13;100591.50;4957379;28;20495;-75
2021/05/02 01:01:43;;;;;;;4.57;2.10;;;;;;;12.39;53.25;100595.47;4951556;28;20043;-75
2021/05/02 01:04:11;;;;;;;4.73;2.23;;;;;;;12.35;53.60;100588.78;4955678;28;20130;-68
2021/05/02 01:06:41;;;;;;;6.53;3.30;;;;;;;12.29;53.70;100581.53;4954696;28;20429;-70
2021/05/02 01:09:08;;;;;;;6.13;2.17;;;;;;;12.27;53.95;100587.44;4964212;28;20047;-70
2021/05/02 01:11:37;;;;;;;3.70;2.47;;;;;;;12.26;53.96;100582.13;4959346;28;20050;-70
2021/05/02 01:14:05;;;;;;;3.60;2.27;;;;;;;12.24;54.04;100595.56;4957552;28;20710;-68
2021/05/02 01:16:35;;;;;;;4.90;2.23;;;;;;;12.22;54.38;100587.47;4956330;28;20485;-70
2021/05/02 01:19:07;;;;;;;3.90;2.20;;;;;;;12.14;54.62;100585.28;4952926;28;20058;-69
2021/05/02 01:21:37;;;;;;;10.33;2.57;;;;;;;12.08;54.89;100586.44;4956659;28;20050;-69
2021/05/02 01:24:07;;;;;;;6.70;3.13;;;;;;;12.02;54.82;100580.03;4959521;28;20043;-70
2021/05/02 01:26:38;;;;;;;4.63;2.53;;;;;;;12.00;55.27;100592.63;4959916;28;20051;-61
2021/05/02 01:29:05;;;;;;;5.40;3.17;;;;;;;11.98;55.17;100590.16;4959049;28;20054;-63
2021/05/02 01:31:33;;;;;;;5.83;3.10;;;;;;;11.91;55.71;100591.59;4956625;28;20117;-63
2021/05/02 01:34:00;;;;;;;7.73;2.90;;;;;;;11.82;56.25;100588.53;4957792;28;20046;-63
2021/05/02 01:36:26;;;;;;;6.20;2.90;;;;;;;11.79;56.45;100589.09;4959192;28;20047;-65
2021/05/02 01:38:57;;;;;;;6.77;3.20;;;;;;;11.72;56.67;100588.56;4965237;28;20122;-63
2021/05/02 01:41:25;;;;;;;5.30;2.57;;;;;;;11.71;56.89;100589.72;4957045;28;20055;-65
2021/05/02 01:43:53;;;;;;;4.50;2.60;;;;;;;11.67;57.00;100588.63;4958446;28;20526;-64
2021/05/02 01:46:36;;;;;;;6.40;3.20;;;;;;;11.63;57.18;100583.59;4962654;28;20512;-64
2021/05/02 01:49:02;;;;;;;4.97;3.47;;;;;;;11.57;57.52;100590.31;4965604;28;20055;-64
2021/05/02 01:51:35;;;;;;;4.17;2.37;;;;;;;11.52;57.61;100575.50;4956325;28;20054;-64
2021/05/02 01:54:01;;;;;;;7.97;2.97;;;;;;;11.51;57.62;100571.88;4959334;28;20053;-64
2021/05/02 01:56:30;;;;;;;10.60;3.30;;;;;;;11.43;58.38;100575.28;4960096;28;20551;-63
2021/05/02 01:58:59;;;;;;;5.63;3.17;;;;;;;11.44;58.44;100573.31;4958030;28;20051;-62
2021/05/02 02:01:27;;;;;;;3.90;2.30;;;;;;;11.34;58.71;100572.22;4957511;28;20054;-63
2021/05/02 02:03:56;;;;;;;6.77;1.97;;;;;;;11.28;59.13;100578.13;4958088;28;20039;-62
2021/05/02 02:06:22;;;;;;;7.37;2.47;;;;;;;11.16;59.61;100575.66;4959695;28;20412;-63
2021/05/02 02:08:49;;;;;;;8.20;3.47;;;;;;;11.05;59.66;100560.06;4961924;28;20047;-61
2021/05/02 02:11:15;;;;;;;7.50;3.60;;;;;;;11.15;59.68;100577.63;4962048;28;20072;-63
2021/05/02 02:13:48;;;;;;;8.53;2.60;;;;;;;11.12;59.72;100575.38;4956573;28;20504;-62
2021/05/02 02:16:15;;;;;;;3.97;2.50;;;;;;;10.99;60.52;100562.00;4963038;28;20419;-62
2021/05/02 02:18:42;;;;;;;4.13;2.43;;;;;;;10.98;60.69;100559.50;4962441;28;20678;-62
2021/05/02 02:21:10;;;;;;;3.73;2.77;;;;;;;10.91;61.07;100565.38;4961498;28;20511;-61
2021/05/02 02:23:40;;;;;;;4.40;2.73;;;;;;;10.77;61.33;100555.91;4959878;28;20077;-62
2021/05/02 02:26:22;;;;;;;2.92;2.53;;;;;;;10.79;61.29;100560.09;4960266;28;20051;-64
2021/05/02 02:28:53;;;;;;;7.33;3.30;;;;;;;10.79;61.49;100559.25;4960794;28;20051;-64
2021/05/02 02:31:20;;;;;;;4.22;2.38;;;;;;;10.72;62.02;100562.34;4956831;28;20062;-61
2021/05/02 02:33:46;;;;;;;4.03;2.40;;;;;;;10.70;62.02;100560.94;4958282;28;20051;-62
2021/05/02 02:36:13;;;;;;;4.83;3.10;;;;;;;10.66;62.20;100563.47;4957373;28;20069;-62
2021/05/02 02:38:44;;;;;;;6.50;2.80;;;;;;;10.60;62.42;100562.63;4967581;28;20475;-62
2021/05/02 02:41:15;;;;;;;4.20;2.30;;;;;;;10.54;62.48;100557.34;4960079;28;20136;-62
2021/05/02 02:43:52;;;;;;;6.17;2.63;;;;;;;10.54;62.60;100562.94;4961200;28;20043;-62
2021/05/02 02:46:20;;;;;;;4.50;2.13;;;;;;;10.48;62.87;100564.88;4962235;28;20047;-62
2021/05/02 02:48:52;;;;;;;2.33;1.80;;;;;;;10.45;62.92;100571.00;4957652;28;20051;-62
2021/05/02 02:51:20;;;;;;;4.33;2.30;;;;;;;10.40;63.19;100563.47;4959331;28;20047;-63
2021/05/02 02:53:50;;;;;;;8.73;3.27;;;;;;;10.34;63.51;100569.34;4963001;28;20144;-63
2021/05/02 02:56:21;;;;;;;3.53;1.92;;;;;;;10.32;63.34;100571.56;4958523;28;20047;-66
2021/05/02 02:58:57;;;;;;;3.97;2.43;;;;;;;10.24;63.81;100569.31;4960302;28;20054;-66
2021/05/02 03:01:25;;;;;;;3.67;2.33;;;;;;;10.23;63.61;100565.69;4957445;28;20050;-65
2021/05/02 03:03:53;;;;;;;5.13;1.67;;;;;;;10.27;63.52;100578.00;4957843;28;20047;-65
2021/05/02 03:06:20;;;;;;;5.27;1.77;;;;;;;10.21;63.66;100579.91;4959095;28;20046;-66
2021/05/02 03:08:48;;;;;;;4.03;2.60;;;;;;;10.00;63.94;100541.94;4939674;28;20051;-64
2021/05/02 03:11:17;;;;;;;7.63;3.27;;;;;;;10.11;64.11;100565.09;4965302;28;20050;-66
2021/05/02 03:13:45;;;;;;;8.30;3.00;;;;;;;10.11;64.00;100559.50;4958254;28;20046;-66
2021/05/02 03:16:11;;;;;;;6.93;2.23;;;;;;;10.17;63.78;100564.81;4957438;28;20047;-65
2021/05/02 03:18:41;;;;;;;5.13;2.67;;;;;;;10.13;63.97;100569.28;4959549;28;20544;-65
2021/05/02 03:21:11;;;;;;;5.03;3.00;;;;;;;10.20;63.71;100566.22;4957533;28;20047;-66
2021/05/02 03:23:43;;;;;;;;;;;;;;;10.20;63.90;100569.03;4955401;28;20743;-65
2021/05/02 03:26:12;;;;;;;4.47;2.50;;;;;;;10.21;63.44;100568.72;4957924;28;19928;-66
2021/05/02 03:28:46;;;;;;;5.27;3.20;;;;;;;10.30;63.36;100579.41;4963355;28;20047;-61
2021/05/02 03:31:15;;;;;;;9.93;3.40;;;;;;;10.21;63.20;100549.19;4958306;28;20052;-63
2021/05/02 03:33:47;;;;;;;3.88;2.70;;;;;;;10.44;62.61;100577.72;4962654;28;20043;-62
2021/05/02 03:36:32;;;;;;;5.87;3.73;;;;;;;10.46;62.40;100578.28;4957637;28;20051;-64
2021/05/02 03:38:58;;;;;;;7.33;3.27;;;;;;;10.57;62.03;100579.13;4954517;28;20047;-62
2021/05/02 03:41:25;;;;;;;7.83;3.57;;;;;;;10.54;62.08;100586.09;4961578;28;20522;-63
2021/05/02 03:43:51;;;;;;;7.40;2.87;;;;;;;10.47;62.55;100585.53;4955713;28;20043;-64
2021/05/02 03:46:24;;;;;;;7.40;3.03;;;;;;;10.29;62.55;100560.94;4962872;28;20067;-67
2021/05/02 03:49:00;;;;;;;5.53;2.50;;;;;;;10.38;62.52;100574.06;4955714;28;20050;-68
2021/05/02 03:51:28;;;;;;;5.63;2.83;;;;;;;10.43;62.50;100584.44;4957748;28;20039;-63
2021/05/02 03:53:55;;;;;;;6.97;3.17;;;;;;;10.47;62.37;100582.75;4954375;28;20412;-67
2021/05/02 03:56:43;;;;;;;5.50;3.13;;;;;;;10.66;61.62;100592.22;4954242;28;20055;-67
2021/05/02 03:59:22;;;;;;;6.60;4.27;;;;;;;10.80;61.06;100583.25;4954357;28;20055;-68
2021/05/02 04:01:57;;;;;;;6.50;3.37;;;;;;;10.77;60.87;100572.66;4959352;28;20070;-70
2021/05/02 04:04:26;;;;;;;5.63;2.73;;;;;;;10.78;61.09;100597.53;4958731;28;20395;-71
2021/05/02 04:06:59;;;;;;;9.53;3.30;;;;;;;10.66;61.60;100588.59;4958824;28;20043;-67
2021/05/02 04:09:26;;;;;;;4.87;3.17;;;;;;;10.77;60.98;100589.41;4962652;28;20043;-65
2021/05/02 04:11:52;;;;;;;9.07;4.83;;;;;;;10.81;60.51;100584.97;4953947;28;20052;-65
2021/05/02 04:14:19;;;;;;;10.23;3.87;;;;;;;10.88;60.15;100591.09;4958972;28;20777;-63
2021/05/02 04:17:03;;;;;;;5.53;3.00;;;;;;;10.88;60.11;100585.50;4959525;28;20043;-64
2021/05/02 04:19:30;;;;;;;6.60;3.50;;;;;;;10.82;60.39;100586.63;4956148;28;20408;-66
2021/05/02 04:21:57;;;;;;;6.33;4.00;;;;;;;10.91;60.20;100593.31;4957174;28;20043;-66
2021/05/02 04:24:24;;;;;;;9.47;3.83;;;;;;;10.89;60.27;100601.16;4957201;28;20089;-68
2021/05/02 04:26:54;;;;;;;6.50;2.93;;;;;;;10.87;60.05;100595.00;4955373;28;20043;-69
2021/05/02 04:29:25;;;;;;;5.63;2.93;;;;;;;10.85;59.97;100591.66;4956915;28;20047;-69
2021/05/02 04:31:52;;;;;;;10.47;3.40;;;;;;;10.63;60.78;100595.59;4944840;28;20043;-68
2021/05/02 04:34:20;;;;;;;5.80;3.47;;;;;;;10.73;60.26;100588.31;4958370;28;20393;-70
2021/05/02 04:36:47;;;;;;;7.27;4.60;;;;;;;10.82;59.83;100592.22;4955698;28;20051;-70
2021/05/02 04:39:14;;;;;;;10.77;5.00;;;;;;;10.82;59.70;100592.22;4955319;28;20085;-67
2021/05/02 04:41:40;;;;;;;10.83;5.40;;;;;;;10.84;59.71;100595.56;4956633;28;20077;-66
2021/05/02 04:44:07;;;;;;;9.47;4.73;;;;;;;10.82;59.42;100592.22;4957510;28;20052;-68
2021/05/02 04:46:34;;;;;;;9.30;4.93;;;;;;;10.73;59.48;100583.56;4953588;28;20074;-68
2021/05/02 04:49:01;;;;;;;7.00;4.50;;;;;;;10.80;59.46;100588.84;4956983;28;20047;-68
2021/05/02 04:51:27;;;;;;;8.80;3.90;;;;;;;10.77;59.60;100593.06;4958385;28;20046;-66
2021/05/02 04:53:54;;;;;;;6.33;3.70;;;;;;;10.51;60.39;100589.44;4964678;28;20137;-66
2021/05/02 04:56:20;;;;;;;4.70;3.37;;;;;;;10.35;60.57;100593.34;4957203;28;20445;-65
2021/05/02 04:58:46;;;;;;;7.80;3.33;;;;;;;10.31;60.57;100593.06;4953859;28;20485;-66
2021/05/02 05:01:13;;;;;;;5.20;3.07;;;;;;;10.16;61.03;100590.22;4956823;28;20054;-65
2021/05/02 05:03:41;;;;;;;6.27;3.57;;;;;;;10.06;61.25;100591.06;4955761;28;20047;-66
2021/05/02 05:06:08;;;;;;;7.93;4.27;;;;;;;10.06;61.06;100596.63;4957036;28;20055;-63
2021/05/02 05:08:34;;;;;;;6.07;3.43;;;;;;;10.07;60.95;100597.47;4958531;28;20043;-66
2021/05/02 05:11:00;;;;;;;7.87;3.90;;;;;;;10.00;60.83;100583.78;4955324;28;20039;-69
2021/05/02 05:13:27;;;;;;;7.50;4.33;;;;;;;10.08;60.55;100579.59;4957579;28;20047;-68
2021/05/02 05:15:57;;;;;;;9.13;4.53;;;;;;;10.25;60.54;100608.09;4957111;28;20051;-69
2021/05/02 05:18:24;;;;;;;10.25;6.20;;;;;;;10.29;60.34;100600.03;4958963;28;20055;-65
2021/05/02 05:20:52;;;;;;;15.40;8.03;;;;;;;10.36;60.09;100607.03;4958803;28;20046;-61
2021/05/02 05:23:18;;;;;;;10.80;6.97;;;;;;;10.35;60.04;100605.34;4958437;28;20047;-66
2021/05/02 05:25:45;;;;;;;10.93;7.10;;;;;;;10.40;60.04;100618.47;4955806;28;20047;-72
2021/05/02 05:28:11;;;;;;;13.40;6.93;;;;;;;10.34;60.03;100608.44;4958450;28;20048;-65
2021/05/02 05:30:38;;;;;;;8.70;5.70;;;;;;;10.35;59.85;100610.09;4959366;28;20405;-67
2021/05/02 05:33:06;;;;;;;9.03;6.13;;;;;;;10.40;59.78;100616.53;4956372;28;20050;-64
2021/05/02 05:35:34;;;;;;;12.97;6.23;;;;;;;10.44;59.81;100617.63;4962475;28;20057;-61
2021/05/02 05:38:01;;;;;;;8.13;5.40;;;;;;;10.47;59.88;100615.41;4960684;28;20058;-62
2021/05/02 05:40:28;;;;;;;7.67;4.63;;;;;;;10.52;59.90;100621.81;4960269;28;20059;-60
2021/05/02 05:42:56;;;;;;;7.97;4.97;;;;;;;10.48;59.92;100615.13;4959154;28;20043;-60
2021/05/02 05:45:23;;;;;;;10.90;5.70;;;;;;;10.50;60.10;100614.88;4959776;28;20396;-61
2021/05/02 05:47:51;;;;;;;12.00;5.97;;;;;;;10.59;59.80;100619.59;4952950;28;20075;-64
2021/05/02 05:50:19;;;;;;;9.47;5.77;;;;;;;10.63;59.56;100615.16;4955559;28;20057;-60
2021/05/02 05:52:46;;;;;;;11.20;6.87;;;;;;;10.64;59.44;100613.19;4958170;28;20051;-68
2021/05/02 05:55:14;;;;;;;8.57;6.17;;;;;;;10.65;59.52;100617.66;4956353;28;20511;-69
2021/05/02 05:57:40;;;;;;;8.40;5.47;;;;;;;10.69;59.57;100621.53;4953029;28;20047;-59
2021/05/02 06:00:09;;;;;;;11.67;5.90;;;;;;;10.71;59.53;100624.91;4955566;28;20051;-60
2021/05/02 06:02:36;;;;;;;9.70;5.97;;;;;;;10.66;59.47;100611.75;4961273;28;20052;-59
2021/05/02 06:05:04;;;;;;;8.23;6.00;;;;;;;10.87;59.53;100628.50;4958961;28;20051;-57
2021/05/02 06:07:30;;;;;;;10.10;6.50;;;;;;;11.01;59.62;100638.03;4956929;28;20043;-58
2021/05/02 06:09:57;;;;;;;9.80;6.37;;;;;;;11.19;59.44;100630.16;4960095;28;20407;-60
2021/05/02 06:12:23;;;;;;;9.40;6.10;;;;;;;11.33;59.30;100634.03;4956910;28;20142;-62
2021/05/02 06:14:49;;;;;;;12.83;7.00;;;;;;;11.40;59.27;100623.38;4955886;28;20061;-59
2021/05/02 06:17:16;;;;;;;9.53;6.00;;;;;;;11.48;59.03;100620.00;4956236;28;20051;-60
2021/05/02 06:19:43;;;;;;;9.57;6.17;;;;;;;11.61;59.02;100647.34;4955851;28;20054;-65
2021/05/02 06:22:11;;;;;;;11.83;6.70;;;;;;;11.70;58.96;100642.03;4964711;28;20103;-62
2021/05/02 06:24:37;;;;;;;11.93;7.10;;;;;;;11.92;58.76;100650.06;4957638;28;20051;-65
2021/05/02 06:27:04;;;;;;;8.33;6.43;;;;;;;12.16;58.37;100649.38;4964791;28;20113;-59
2021/05/02 06:29:31;;;;;;;10.77;5.87;;;;;;;12.35;57.81;100644.78;4955722;28;20054;-59
2021/05/02 06:31:57;;;;;;;11.03;6.73;;;;;;;12.57;57.65;100642.38;4961101;28;20055;-59
2021/05/02 06:34:24;;;;;;;12.87;5.97;;;;;;;12.78;57.40;100645.84;4962243;28;20521;-62
2021/05/02 06:36:54;;;;;;;9.97;5.87;;;;;;;12.94;57.30;100632.53;4955170;28;20054;-60
2021/05/02 06:39:20;;;;;;;11.82;5.80;;;;;;;13.18;56.94;100643.81;4955015;28;20058;-59
2021/05/02 06:41:47;;;;;;;8.73;5.43;;;;;;;13.35;56.43;100650.97;4957537;28;20058;-68
2021/05/02 06:44:13;;;;;;;8.43;5.30;;;;;;;13.52;56.40;100649.34;4954907;28;20051;-62
2021/05/02 06:46:39;;;;;;;11.73;6.20;;;;;;;13.68;56.25;100650.03;4958950;28;20043;-61
2021/05/02 06:49:07;;;;;;;9.97;5.60;;;;;;;13.82;55.88;100650.13;4954991;28;20051;-63
2021/05/02 06:51:35;;;;;;;8.50;5.43;;;;;;;13.88;56.00;100637.72;4960412;28;20055;-62
2021/05/02 06:54:02;;;;;;;6.80;5.17;;;;;;;14.10;55.53;100658.75;4960869;28;20112;-60
2021/05/02 06:56:29;;;;;;;7.80;5.27;;;;;;;14.23;55.40;100669.25;4957103;28;20040;-59
2021/05/02 06:58:55;;;;;;;8.33;5.37;;;;;;;14.13;55.46;100638.50;4961737;28;20081;-60
2021/05/02 07:01:22;;;;;;;8.63;5.57;;;;;;;14.42;55.02;100666.44;4958291;28;20047;-59
2021/05/02 07:03:49;;;;;;;9.90;6.43;;;;;;;14.46;54.80;100657.13;4958855;28;20547;-60
2021/05/02 07:06:29;;;;;;;8.67;6.07;;;;;;;14.59;54.65;100671.56;4956315;28;20416;-59
2021/05/02 07:08:56;;;;;;;13.60;6.37;;;;;;;14.45;54.42;100635.75;4959357;28;20127;-60
2021/05/02 07:11:22;;;;;;;10.57;6.90;;;;;;;14.73;54.31;100671.63;4959676;28;20510;-59
2021/05/02 07:13:49;;;;;;;10.57;6.27;;;;;;;14.85;54.06;100674.81;4960839;28;20054;-60
2021/05/02 07:16:17;;;;;;;8.50;4.80;;;;;;;14.96;53.78;100665.03;4965070;28;20046;-60
2021/05/02 07:18:49;;;;;;;11.70;5.00;;;;;;;15.15;53.42;100667.81;4956880;28;20050;-59
2021/05/02 07:21:18;;;;;;;6.97;4.50;;;;;;;15.26;53.23;100671.28;4959405;28;20050;-60
2021/05/02 07:23:50;;;;;;;8.00;6.03;;;;;;;15.49;52.76;100669.47;4959849;28;20054;-60
2021/05/02 07:26:18;;;;;;;6.57;4.70;;;;;;;15.65;52.30;100679.25;4940629;28;20043;-59
2021/05/02 07:28:45;;;;;;;17.50;5.20;;;;;;;15.66;52.05;100664.09;4956562;28;20047;-60
2021/05/02 07:31:12;;;;;;;10.27;4.50;;;;;;;15.78;51.90;100675.63;4957255;28;20054;-58
2021/05/02 07:33:41;;;;;;;6.53;4.13;;;;;;;15.80;51.80;100667.72;4956416;28;20065;-59
2021/05/02 07:36:08;;;;;;;8.13;4.63;;;;;;;16.00;51.54;100674.06;4959938;28;20047;-59
2021/05/02 07:38:35;;;;;;;7.20;4.90;;;;;;;16.14;51.08;100674.91;4958993;28;20058;-60
2021/05/02 07:41:03;;;;;;;8.83;4.57;;;;;;;16.20;51.07;100675.59;4957936;28;21143;-59
2021/05/02 07:43:29;;;;;;;6.80;4.77;;;;;;;16.14;51.17;100685.31;4955718;28;20049;-59
2021/05/02 07:45:55;;;;;;;12.60;4.93;;;;;;;16.16;51.11;100681.03;4954027;28;20408;-60
2021/05/02 07:48:22;;;;;;;9.23;5.57;;;;;;;16.33;50.46;100680.38;4958382;28;20059;-59
2021/05/02 07:50:48;;;;;;;7.07;4.00;;;;;;;16.53;50.48;100685.56;4957877;28;20066;-60
2021/05/02 07:53:17;;;;;;;6.97;4.27;;;;;;;16.72;49.93;100678.94;4957519;28;20163;-61
2021/05/02 07:55:44;;;;;;;8.82;4.30;;;;;;;16.96;49.45;100681.50;4963512;28;20368;-59
2021/05/02 07:58:10;;;;;;;12.07;4.87;;;;;;;17.03;49.40;100687.50;4957060;28;20050;-60
2021/05/02 08:00:37;;;;;;;7.07;4.97;;;;;;;17.08;48.94;100673.25;4962973;28;20046;-61
2021/05/02 08:03:03;;;;;;;6.93;4.27;;;;;;;17.26;48.74;100686.34;4952745;28;20046;-60
2021/05/02 08:05:31;;;;;;;6.75;4.28;;;;;;;17.51;47.97;100682.00;4959623;28;20411;-59
2021/05/02 08:07:58;;;;;;;7.40;3.83;;;;;;;17.75;47.60;100686.44;4958709;28;20489;-59
2021/05/02 08:10:25;;;;;;;8.02;4.30;;;;;;;17.92;47.38;100680.06;4963473;28;20397;-60
2021/05/02 08:12:53;;;;;;;4.82;3.45;;;;;;;18.05;46.71;100684.75;4961817;28;20073;-61
2021/05/02 08:15:19;;;;;;;5.53;3.63;;;;;;;18.19;46.09;100684.63;4961285;28;20051;-58
2021/05/02 08:17:46;;;;;;;5.85;4.07;;;;;;;18.39;45.86;100689.66;4955455;28;20039;-60
2021/05/02 08:20:13;;;;;;;12.30;4.65;;;;;;;18.54;45.44;100691.16;4956844;28;20054;-60
2021/05/02 08:22:39;;;;;;;8.82;3.60;;;;;;;18.45;45.73;100690.31;4962734;28;20520;-61
2021/05/02 08:25:06;;;;;;;5.20;3.70;;;;;;;18.55;46.02;100683.50;4956289;28;20055;-61
2021/05/02 08:27:32;;;;;;;4.35;3.53;;;;;;;18.85;45.18;100693.03;4960040;28;20057;-61
2021/05/02 08:29:59;;;;;;;5.63;3.45;;;;;;;19.02;44.78;100693.03;4958327;28;20425;-59
2021/05/02 08:32:26;;;;;;;5.60;3.90;;;;;;;19.17;43.90;100692.50;4958455;28;20043;-59
2021/05/02 08:34:52;;;;;;;6.70;4.10;;;;;;;19.40;43.94;100689.47;4957677;28;20051;-60
2021/05/02 08:37:19;;;;;;;5.47;4.13;;;;;;;19.54;43.71;100681.59;4952763;28;20047;-60
2021/05/02 08:39:45;;;;;;;8.57;4.53;;;;;;;19.86;43.45;100696.34;4953400;28;20408;-61
2021/05/02 08:42:12;;;;;;;7.47;3.72;;;;;;;19.85;43.05;100700.34;4957104;28;20047;-60
2021/05/02 08:44:40;;;;;;;4.75;3.03;;;;;;;19.90;42.72;100686.00;4952162;28;20086;-61
2021/05/02 08:47:07;;;;;;;6.93;4.18;;;;;;;20.18;42.82;100686.38;4952379;28;20627;-61
2021/05/02 08:49:33;;;;;;;8.77;4.40;;;;;;;20.60;42.22;100697.78;4952461;28;20529;-61
2021/05/02 08:52:00;;;;;;;6.45;3.78;;;;;;;20.90;41.22;100695.72;4955355;28;20055;-60
2021/05/02 08:54:28;;;;;;;7.82;4.13;;;;;;;21.09;40.67;100700.06;4953309;28;20501;-61
2021/05/02 08:56:56;;;;;;;5.85;3.15;;;;;;;21.24;40.30;100688.06;4954546;28;20053;-61
2021/05/02 08:59:22;;;;;;;4.25;3.03;;;;;;;21.44;39.88;100692.91;4952258;28;20047;-61
2021/05/02 09:01:49;;;;;;;7.60;4.00;;;;;;;21.57;39.82;100698.59;4952493;28;20584;-62
2021/05/02 09:04:16;;;;;;;6.78;4.13;;;;;;;21.73;39.55;100696.75;4953075;28;20122;-60
2021/05/02 09:06:43;;;;;;;5.80;3.30;;;;;;;21.70;39.41;100697.44;4954663;28;20494;-61
2021/05/02 09:09:12;;;;;;;7.13;3.25;;;;;;;21.87;39.41;100688.69;4955381;28;20047;-61
2021/05/02 09:11:40;;;;;;;8.75;3.63;;;;;;;22.04;38.50;100686.81;4952749;28;20051;-61
2021/05/02 09:14:26;;;;;;;6.68;3.47;;;;;;;21.90;38.76;100688.00;4952907;28;20412;-60
2021/05/02 09:16:56;;;;;;;7.40;3.35;;;;;;;21.86;38.60;100698.41;4952352;28;20042;-61
2021/05/02 09:19:29;;;;;;;5.53;3.47;;;;;;;21.91;38.55;100683.13;4952645;28;20051;-61
2021/05/02 09:21:55;;;;;;;6.50;3.35;;;;;;;22.11;38.04;100698.44;4952450;28;20413;-61
2021/05/02 09:24:27;;;;;;;7.80;3.60;;;;;;;22.26;37.67;100689.22;4958343;28;20046;-59
2021/05/02 09:27:09;;;;;;;8.25;3.40;;;;;;;22.42;37.34;100690.13;4959258;28;20051;-61
2021/05/02 09:29:36;;;;;;;6.45;3.28;;;;;;;22.60;37.04;100692.75;4952246;28;20051;-61
2021/05/02 09:32:04;;;;;;;3.90;2.90;;;;;;;22.71;36.35;100682.50;4952455;28;20059;-61
2021/05/02 09:34:31;;;;;;;5.43;3.05;;;;;;;22.69;35.79;100674.31;4958837;28;20050;-60
2021/05/02 09:37:07;;;;;;;3.92;2.97;;;;;;;22.65;35.95;100675.41;4953250;28;20058;-61
2021/05/02 09:39:41;;;;;;;5.18;2.92;;;;;;;22.48;35.87;100680.19;4952474;28;20539;-60
2021/05/02 09:42:16;;;;;;;6.15;3.22;;;;;;;22.63;35.88;100674.94;4953493;28;20058;-61
2021/05/02 09:44:45;;;;;;;4.00;2.33;;;;;;;22.68;35.35;100677.53;4951586;28;20082;-61
2021/05/02 09:47:31;;;;;;;3.72;2.45;;;;;;;22.92;34.87;100683.19;4952132;28;20054;-61
2021/05/02 09:50:12;;;;;;;3.78;2.20;;;;;;;23.14;34.22;100678.94;4952409;28;20576;-59
2021/05/02 09:52:54;;;;;;;4.45;2.38;;;;;;;23.39;33.43;100681.69;4952334;28;20166;-61
2021/05/02 09:55:22;;;;;;;5.68;1.70;;;;;;;23.50;33.04;100684.81;4955087;28;20581;-61
2021/05/02 09:57:56;;;;;;;3.88;2.30;;;;;;;23.45;33.14;100677.34;4956527;28;20051;-61
2021/05/02 10:00:49;;;;;;;6.60;2.22;;;;;;;23.56;33.43;100674.81;4959684;28;20062;-61
2021/05/02 10:03:19;;;;;;;2.47;1.98;;;;;;;23.83;32.35;100664.56;4950569;28;20058;-60
2021/05/02 10:05:52;;;;;;;3.85;2.30;;;;;;;24.00;32.60;100675.59;4959612;28;20150;-60
2021/05/02 10:08:21;;;;;;;4.50;2.97;;;;;;;24.06;31.47;100676.13;4957422;28;20768;-60
2021/05/02 10:10:48;;;;;;;4.00;1.80;;;;;;;24.00;31.82;100681.31;4955501;28;20455;-61
2021/05/02 10:13:14;;;;;;;3.97;2.38;;;;;;;23.91;31.88;100688.38;4955269;28;20050;-59
2021/05/02 10:15:41;;;;;;;3.22;2.00;;;;;;;23.99;31.93;100678.81;4958544;28;20178;-61
2021/05/02 10:18:09;;;;;;;3.15;2.00;;;;;;;24.21;31.81;100666.75;4955436;28;20077;-60
2021/05/02 10:20:35;;;;;;;5.57;2.08;;;;;;;24.60;31.28;100672.56;4955369;28;20043;-59
2021/05/02 10:23:03;;;;;;;5.38;2.38;;;;;;;24.96;31.18;100667.66;4953892;28;20484;-61
2021/05/02 10:25:30;;;;;;;3.72;2.33;;;;;;;25.33;30.97;100665.16;4962356;28;20043;-60
2021/05/02 10:27:56;;;;;;;5.20;3.22;;;;;;;25.69;30.75;100648.69;4957249;28;20051;-61
2021/05/02 10:30:28;;;;;;;5.45;3.65;;;;;;;26.13;30.43;100666.22;4955084;28;20047;-60
2021/05/02 10:33:05;;;;;;;4.72;2.90;;;;;;;26.39;30.44;100658.84;4959516;28;20051;-61
2021/05/02 10:35:53;;;;;;;8.18;3.55;;;;;;;26.52;29.88;100657.44;4955362;28;20540;-61
2021/05/02 10:38:57;;;;;;;5.10;3.50;;;;;;;25.87;30.00;100660.47;4954939;28;20055;-61
2021/05/02 10:41:37;;;;;;;6.82;2.35;;;;;;;25.05;30.76;100651.09;4957659;28;20061;-60
2021/05/02 10:44:03;;;;;;;7.60;3.13;;;;;;;24.60;31.43;100664.00;4957168;28;20105;-61
2021/05/02 10:46:42;;;;;;;4.43;2.30;;;;;;;24.78;31.16;100652.97;4955004;28;20488;-61
2021/05/02 10:49:10;;;;;;;5.50;2.40;;;;;;;25.19;30.92;100639.16;4956235;28;20059;-60
2021/05/02 10:51:36;;;;;;;3.75;2.53;;;;;;;25.47;29.84;100650.31;4956486;28;20047;-60
2021/05/02 10:54:12;;;;;;;5.18;2.88;;;;;;;25.84;29.97;100647.72;4954772;28;20050;-61
2021/05/02 10:56:52;;;;;;;4.10;2.20;;;;;;;26.24;29.53;100641.44;4954693;28;20054;-61
2021/05/02 10:59:21;;;;;;;3.35;2.10;;;;;;;26.74;28.61;100643.44;4954001;28;20710;-60
2021/05/02 11:01:48;;;;;;;2.55;2.00;;;;;;;27.02;28.61;100651.56;4954618;28;20412;-61
2021/05/02 11:04:15;;;;;;;3.95;2.47;;;;;;;27.31;27.62;100652.75;4954772;28;20043;-61
2021/05/02 11:06:41;;;;;;;2.60;1.83;;;;;;;26.84;27.42;100643.56;4957454;28;20130;-62
2021/05/02 11:09:11;;;;;;;2.97;2.08;;;;;;;26.54;28.10;100646.44;4955321;28;20488;-61
2021/05/02 11:11:42;;;;;;;3.03;2.38;;;;;;;26.75;27.78;100616.44;4959621;28;20127;-60
2021/05/02 11:16:41;;;;;;;3.88;2.53;;;;;;;27.35;27.55;100622.91;4954652;28;20051;-61
2021/05/02 11:19:24;;;;;;;4.70;2.63;;;;;;;27.34;27.83;100629.03;4954124;28;20464;-60
2021/05/02 11:24:18;;;;;;;5.93;2.55;;;;;;;25.78;28.15;100626.38;4961220;28;20046;-61
2021/05/02 11:27:06;;;;;;;7.28;3.22;;;;;;;25.12;28.99;100619.00;4955656;28;20047;-62
2021/05/02 11:32:36;;;;;;;6.68;3.45;;;;;;;24.22;29.82;100614.16;4953922;28;20382;-61
2021/05/02 11:35:18;;;;;;;4.38;3.00;;;;;;;24.22;30.47;100591.34;4953601;28;20051;-61
2021/05/02 11:37:44;;;;;;;6.40;3.25;;;;;;;24.71;30.18;100624.25;4953699;28;20043;-60
2021/05/02 11:42:52;;;;;;;4.35;2.85;;;;;;;25.57;29.69;100603.91;4958855;28;20047;-61
2021/05/02 11:45:20;;;;;;;3.72;2.50;;;;;;;25.64;29.20;100601.22;4953821;28;20383;-60